Le Roy, Michigan
Current Conditions -  °F | °C
As of 12:54 PM on Friday 24 Oct 2014 (Local Time) from KCAD Reporting Station
Overcast Overcast  
Wind Chill: 10°   Ceiling: 500
Heat Index: 10°   Visibility: 10mi
Dew Point: 10°   Wind: 7mph
Humidity: 95%   Direction: 240°WSW
Pressure: 30"   Gusts: NA
Location:  44.0236°N, 85.4348°W
Report Text: KCAD 241654Z AUTO 24006KT 10SM OVC005 10/09 A3000 RMK AO2 T01020095
Loading
Personal Weather Stations






























Interactive Weather Map
Tropical Storm Tracking
New forecast layout! Learn more

10-Day Weather Forecast

Advertisements
Track Severe Weather on mobile